Terminal Aerodrome Forecast
Issued by NWS Charleston, WV

Current Version | Previous Version | Graphics & Text | Print | Product List | Glossary On
Versions: 1 2 3 4 5 6 7 8 9 10 11 12 13 14 15 16 17 18 19 20 21 22 23 24
000
FTUS41 KRLX 050300 AAA
TAFCRW
TAF AMD
KCRW 050343Z 0504/0524 36008KT 2SM -PLRA BR SCT002 OVC008
     FM050500 36008KT 1SM -SN SCT001 OVC004
     FM051300 35009KT 3SM -SN BR OVC008
     FM051600 35009KT 5SM -SN BR OVC012
     FM052000 33008KT 5SM BR BKN020=

USA.gov is the U.S. government's official web portal to all federal, state and local government web resources and services.